Time;durP1;ratioP1;P1;durP2;ratioP2;P2;SDS_P1;SDS_P2;PMS_P1;PMS_P2;Temp;Humidity;BMP_temperature;BMP_pressure;BME280_temperature;BME280_humidity;BME280_pressure;Samples;Min_cycle;Max_cycle;Signal;HPM_P1;HPM_P2
2021/12/14 00:01:46;;;;;;;13.52;5.70;;;;;;;11.70;82.85;101128.25;5086907;28;20033;-69
2021/12/14 00:04:17;;;;;;;17.10;6.15;;;;;;;11.68;83.01;101118.53;5084549;28;21802;-69
2021/12/14 00:06:47;;;;;;;14.02;5.78;;;;;;;11.67;82.92;101122.91;5088170;28;20051;-69
2021/12/14 00:09:25;;;;;;;12.63;5.63;;;;;;;11.65;82.66;101127.28;5088506;28;20044;-69
2021/12/14 00:12:09;;;;;;;11.55;4.93;;;;;;;11.63;82.62;101121.06;5086909;28;20519;-69
2021/12/14 00:17:30;;;;;;;13.80;5.72;;;;;;;11.56;82.67;101121.81;5104354;28;20051;-69
2021/12/14 00:20:00;;;;;;;16.00;5.50;;;;;;;11.53;82.62;101125.31;5108595;28;20063;-69
2021/12/14 00:22:36;;;;;;;18.13;5.65;;;;;;;11.53;82.77;101121.78;5092960;28;20051;-69
2021/12/14 00:25:05;;;;;;;11.32;5.20;;;;;;;11.49;82.78;101112.00;5090697;28;20412;-69
2021/12/14 00:27:34;;;;;;;10.98;4.63;;;;;;;11.46;82.88;101110.22;5090461;28;20089;-69
2021/12/14 00:30:07;;;;;;;13.77;4.80;;;;;;;11.48;82.88;101110.25;5091662;28;20063;-69
2021/12/14 00:32:37;;;;;;;14.37;5.37;;;;;;;11.47;82.87;101108.47;5090719;28;20048;-69
2021/12/14 00:35:11;;;;;;;11.02;4.75;;;;;;;11.51;83.00;101110.28;5078759;28;20040;-69
2021/12/14 00:37:41;;;;;;;12.48;4.40;;;;;;;11.57;82.98;101098.06;5092610;28;20055;-69
2021/12/14 00:40:13;;;;;;;12.80;4.90;;;;;;;11.64;82.93;101100.81;5090167;28;20056;-68
2021/12/14 00:42:41;;;;;;;10.85;4.15;;;;;;;11.67;82.91;101099.13;5077537;28;20044;-69
2021/12/14 00:45:12;;;;;;;11.30;5.00;;;;;;;11.68;82.89;101095.63;5090995;28;20455;-69
2021/12/14 00:47:40;;;;;;;14.77;3.92;;;;;;;11.70;82.99;101100.91;5091696;28;20044;-69
2021/12/14 00:50:09;;;;;;;13.07;4.90;;;;;;;11.69;83.00;101093.81;5090219;28;20101;-69
2021/12/14 00:52:37;;;;;;;10.95;4.00;;;;;;;11.67;83.16;101085.91;5091405;28;20048;-69
2021/12/14 00:55:07;;;;;;;12.45;3.60;;;;;;;11.66;83.35;101089.41;5090168;28;20064;-69
2021/12/14 00:57:36;;;;;;;10.13;4.32;;;;;;;11.68;83.47;101081.50;5091970;28;20492;-69
2021/12/14 01:00:08;;;;;;;10.25;4.25;;;;;;;11.72;83.50;101086.84;5090748;28;20070;-69
2021/12/14 01:02:38;;;;;;;10.90;3.38;;;;;;;11.76;83.63;101082.53;5089733;28;20090;-69
2021/12/14 01:05:13;;;;;;;11.25;3.35;;;;;;;11.79;83.53;101080.84;5077915;28;20040;-69
2021/12/14 01:07:41;;;;;;;8.85;4.20;;;;;;;11.81;83.43;101079.09;5091255;28;20115;-69
2021/12/14 01:10:14;;;;;;;10.98;5.20;;;;;;;11.83;83.39;101087.03;5091300;28;20040;-70
2021/12/14 01:12:48;;;;;;;11.57;4.60;;;;;;;11.83;83.26;101082.66;5090109;28;20044;-69
2021/12/14 01:15:29;;;;;;;9.25;4.05;;;;;;;11.80;83.30;101082.63;5090272;28;20044;-69
2021/12/14 01:18:17;;;;;;;8.75;3.63;;;;;;;11.77;83.15;101082.56;5089687;28;20048;-69
2021/12/14 01:20:50;;;;;;;13.88;3.72;;;;;;;11.70;83.23;101085.94;5090126;28;20067;-69
2021/12/14 01:23:28;;;;;;;9.77;3.80;;;;;;;11.67;83.40;101079.72;5096653;28;20041;-69
2021/12/14 01:26:03;;;;;;;9.93;3.50;;;;;;;11.61;83.45;101084.91;5078559;28;20043;-69
2021/12/14 01:28:32;;;;;;;;;;;;;;;11.55;83.56;101080.41;5090227;28;20094;-70
2021/12/14 01:31:08;;;;;;;8.98;3.45;;;;;;;11.55;83.66;101080.41;5090187;28;20291;-70
2021/12/14 01:33:39;;;;;;;8.45;3.47;;;;;;;11.58;83.64;101083.09;5089264;28;20053;-69
2021/12/14 01:36:21;;;;;;;15.65;5.30;;;;;;;11.59;83.49;101080.47;5089412;28;20040;-69
2021/12/14 01:39:09;;;;;;;11.82;4.25;;;;;;;11.62;83.42;101081.41;5082301;28;20059;-69
2021/12/14 01:41:37;;;;;;;12.70;3.28;;;;;;;11.56;83.37;101076.88;5089799;28;20051;-69
2021/12/14 01:44:06;;;;;;;10.50;3.78;;;;;;;11.53;83.19;101076.84;5089789;28;20085;-69
2021/12/14 01:46:43;;;;;;;11.23;3.55;;;;;;;11.49;83.12;101067.06;5089378;28;20059;-69
2021/12/14 01:49:32;;;;;;;16.73;4.30;;;;;;;11.44;83.18;101068.75;5087532;28;20093;-69
2021/12/14 01:52:21;;;;;;;12.18;3.92;;;;;;;11.43;83.27;101059.91;5090823;28;20036;-69
2021/12/14 01:54:53;;;;;;;11.27;3.53;;;;;;;11.42;83.40;101054.63;5094227;28;20037;-69
2021/12/14 01:57:24;;;;;;;11.23;3.90;;;;;;;11.41;83.46;101052.84;5098516;28;20039;-69
2021/12/14 01:59:56;;;;;;;9.73;3.95;;;;;;;11.42;83.57;101044.91;5085688;28;20090;-69
2021/12/14 02:02:32;;;;;;;10.48;3.13;;;;;;;11.44;83.51;101048.50;5089643;28;20040;-69
2021/12/14 02:05:06;;;;;;;12.35;4.65;;;;;;;11.48;83.58;101050.34;5100609;28;20040;-70
2021/12/14 02:07:37;;;;;;;10.55;4.72;;;;;;;11.52;83.73;101054.78;5089067;28;20111;-69
2021/12/14 02:10:09;;;;;;;16.27;4.97;;;;;;;11.57;83.66;101053.13;5087288;28;20450;-69
2021/12/14 02:12:41;;;;;;;10.43;3.47;;;;;;;11.61;83.71;101047.88;5088769;28;20047;-69
2021/12/14 02:15:12;;;;;;;10.93;4.15;;;;;;;11.63;83.73;101048.78;5088808;28;20127;-70
2021/12/14 02:17:42;;;;;;;10.15;4.10;;;;;;;11.57;83.84;101041.66;5089475;28;20040;-70
2021/12/14 02:20:14;;;;;;;7.60;3.55;;;;;;;11.55;83.71;101038.09;5089170;28;20040;-70
2021/12/14 02:22:44;;;;;;;12.15;4.68;;;;;;;11.51;83.68;101036.25;5088428;28;20036;-70
2021/12/14 02:25:13;;;;;;;9.23;3.83;;;;;;;11.50;83.56;101035.38;5088276;28;20044;-70
2021/12/14 02:27:43;;;;;;;19.65;11.32;;;;;;;11.46;83.40;101037.94;5088992;28;20036;-69
2021/12/14 02:30:15;;;;;;;11.95;5.20;;;;;;;11.44;83.38;101034.38;5101514;28;20040;-70
2021/12/14 02:32:43;;;;;;;16.35;4.90;;;;;;;11.44;83.34;101023.81;5085534;28;20044;-70
2021/12/14 02:35:15;;;;;;;9.57;4.65;;;;;;;11.43;83.15;101014.97;5086871;28;20118;-70
2021/12/14 02:37:47;;;;;;;12.52;4.53;;;;;;;11.41;82.98;101015.84;5093281;28;20041;-70
2021/12/14 02:40:20;;;;;;;8.38;4.70;;;;;;;11.37;82.96;101006.06;5084816;28;20046;-70
2021/12/14 02:42:50;;;;;;;11.73;4.30;;;;;;;11.32;83.10;101000.72;5087513;28;20539;-70
2021/12/14 02:45:22;;;;;;;12.18;3.45;;;;;;;11.28;83.07;101001.53;5088129;28;20044;-70
2021/12/14 02:47:50;;;;;;;11.43;4.15;;;;;;;11.24;83.07;101004.97;5088328;28;20097;-69
2021/12/14 02:50:18;;;;;;;17.20;8.82;;;;;;;11.23;83.09;101003.19;5088101;28;20036;-70
2021/12/14 02:52:47;;;;;;;10.93;3.83;;;;;;;11.25;83.28;101006.75;5089070;28;20127;-70
2021/12/14 02:55:19;;;;;;;15.93;7.32;;;;;;;11.29;83.43;101005.06;5087839;28;20510;-69
2021/12/14 02:57:51;;;;;;;20.27;12.68;;;;;;;11.32;83.44;101010.41;5105367;28;20122;-70
2021/12/14 03:00:22;;;;;;;20.35;12.02;;;;;;;11.33;83.29;100997.22;5071046;28;20048;-70
2021/12/14 03:02:50;;;;;;;19.90;11.15;;;;;;;11.35;82.86;100994.59;5090202;28;20436;-70
2021/12/14 03:05:21;;;;;;;14.55;6.90;;;;;;;11.31;82.54;100995.41;5088098;28;20036;-70
2021/12/14 03:07:54;;;;;;;11.80;6.00;;;;;;;11.30;82.36;100998.91;5070735;28;20089;-70
2021/12/14 03:10:36;;;;;;;11.02;6.13;;;;;;;11.27;82.11;100990.94;5087102;28;20044;-70
2021/12/14 03:13:08;;;;;;;14.57;4.30;;;;;;;11.19;82.05;100991.69;5088271;28;20496;-70
2021/12/14 03:15:45;;;;;;;11.45;4.40;;;;;;;11.17;82.54;100987.25;5087756;28;20531;-71
2021/12/14 03:18:16;;;;;;;9.75;3.97;;;;;;;11.14;82.53;100993.38;5072330;28;20032;-70
2021/12/14 03:20:47;;;;;;;8.13;3.67;;;;;;;11.09;82.74;100986.25;5089848;28;20678;-70
2021/12/14 03:23:19;;;;;;;11.27;4.07;;;;;;;11.09;82.78;100997.66;5087559;28;20113;-70
2021/12/14 03:25:49;;;;;;;9.77;3.97;;;;;;;11.08;82.97;100995.91;5097335;28;20041;-70
2021/12/14 03:28:19;;;;;;;10.80;4.07;;;;;;;11.09;83.01;100994.16;5060080;28;20208;-70
2021/12/14 03:30:53;;;;;;;13.13;5.18;;;;;;;11.13;82.95;100994.25;5087944;28;20048;-70
2021/12/14 03:33:25;;;;;;;17.38;5.85;;;;;;;11.16;82.99;100998.66;5087723;28;20047;-70
2021/12/14 03:35:58;;;;;;;15.68;5.28;;;;;;;11.17;82.93;101000.44;5087400;28;20071;-70
2021/12/14 03:38:31;;;;;;;8.70;3.60;;;;;;;11.12;82.91;100992.47;5086370;28;20040;-70
2021/12/14 03:41:06;;;;;;;11.23;4.03;;;;;;;11.07;83.00;100987.97;5088159;28;20036;-70
2021/12/14 03:43:36;;;;;;;11.80;3.83;;;;;;;11.06;83.17;100997.63;5087659;28;20647;-70
2021/12/14 03:46:09;;;;;;;16.13;6.22;;;;;;;11.07;83.27;101003.81;5088048;28;20043;-70
2021/12/14 03:48:40;;;;;;;16.35;6.97;;;;;;;10.98;83.02;101007.19;5087704;28;20106;-71
2021/12/14 03:51:08;;;;;;;12.20;5.50;;;;;;;10.87;83.00;100998.19;5074288;28;20043;-70
2021/12/14 03:53:38;;;;;;;19.20;8.32;;;;;;;10.90;83.29;100995.56;5086626;28;20044;-70
2021/12/14 03:56:09;;;;;;;13.18;6.10;;;;;;;10.91;83.38;101001.75;5087626;28;20543;-70
2021/12/14 03:58:40;;;;;;;11.90;5.80;;;;;;;10.94;83.14;100999.19;5095643;28;20512;-70
2021/12/14 04:01:12;;;;;;;11.60;5.38;;;;;;;10.94;83.12;101000.06;5096288;28;20063;-71
2021/12/14 04:03:49;;;;;;;21.45;14.98;;;;;;;10.93;82.86;101008.84;5086860;28;20143;-70
2021/12/14 04:06:24;;;;;;;15.85;9.10;;;;;;;10.87;82.84;101003.47;5087291;28;20047;-70
2021/12/14 04:08:55;;;;;;;13.00;6.82;;;;;;;10.88;83.06;101004.34;5088605;28;20052;-71
2021/12/14 04:11:23;;;;;;;14.80;8.02;;;;;;;10.93;83.03;101006.22;5087526;28;20047;-71
2021/12/14 04:13:54;;;;;;;15.07;6.72;;;;;;;10.98;82.94;101006.28;5088076;28;20050;-70
2021/12/14 04:16:33;;;;;;;12.07;4.68;;;;;;;11.00;82.80;101007.22;5086576;28;20127;-72
2021/12/14 04:19:05;;;;;;;8.82;4.22;;;;;;;11.02;82.69;101005.50;5087218;28;20487;-71
2021/12/14 04:21:40;;;;;;;10.98;5.95;;;;;;;11.05;82.75;101006.41;5086876;28;20044;-71
2021/12/14 04:24:19;;;;;;;15.35;6.90;;;;;;;11.07;82.80;101011.75;5087078;28;20047;-71
2021/12/14 04:26:47;;;;;;;16.63;8.05;;;;;;;11.05;82.86;101001.13;5089156;28;20093;-71
2021/12/14 04:29:18;;;;;;;15.82;6.95;;;;;;;11.06;82.75;101002.91;5078697;28;20483;-71
2021/12/14 04:31:47;;;;;;;12.75;5.45;;;;;;;11.06;82.71;101000.28;5087377;28;20488;-71
2021/12/14 04:34:17;;;;;;;22.27;13.57;;;;;;;10.99;82.45;101008.97;5067355;28;21062;-71
2021/12/14 04:36:47;;;;;;;20.38;10.38;;;;;;;10.90;82.26;101006.13;5086961;28;20389;-70
2021/12/14 04:53:35;;;;;;;10.32;5.32;;;;;;;10.87;81.97;100999.94;5085985;28;20074;-71
2021/12/14 04:56:07;;;;;;;10.30;5.50;;;;;;;10.84;81.90;101003.38;5082604;28;20449;-70
2021/12/14 04:58:38;;;;;;;23.05;13.88;;;;;;;10.84;81.80;101003.38;5083437;28;20044;-71
2021/12/14 05:01:10;;;;;;;14.73;8.15;;;;;;;10.81;81.90;101002.47;5097046;28;20127;-71
2021/12/14 05:03:43;;;;;;;35.67;27.65;;;;;;;10.80;81.84;101006.84;5087844;28;20060;-71
2021/12/14 05:06:17;;;;;;;76.78;54.90;;;;;;;10.77;82.00;101001.50;5090635;28;20056;-71
2021/12/14 05:11:36;;;;;;;52.10;30.63;;;;;;;10.65;82.27;101007.44;5095315;28;20047;-71
2021/12/14 05:14:10;;;;;;;35.25;24.25;;;;;;;10.68;82.67;101006.63;5091643;28;20028;-71
2021/12/14 05:16:44;;;;;;;29.20;19.90;;;;;;;10.71;82.70;101010.19;5090397;28;20063;-71
2021/12/14 05:19:14;;;;;;;29.83;21.20;;;;;;;10.79;82.97;101013.00;5090684;28;20040;-71
2021/12/14 05:21:45;;;;;;;24.80;16.55;;;;;;;10.79;82.87;101008.59;5089897;28;20403;-71
2021/12/14 05:24:19;;;;;;;28.67;21.73;;;;;;;10.82;82.97;101010.41;5090584;28;20044;-71
2021/12/14 05:27:00;;;;;;;36.92;24.80;;;;;;;10.83;82.97;101006.88;5090929;28;20040;-70
2021/12/14 05:29:31;;;;;;;36.72;23.20;;;;;;;10.80;83.04;101004.22;5089485;28;20040;-71
2021/12/14 05:32:03;;;;;;;33.40;24.73;;;;;;;10.79;83.16;101005.06;5090012;28;20078;-71
2021/12/14 05:34:32;;;;;;;38.08;26.88;;;;;;;10.81;83.04;101008.63;5073091;28;20036;-71
2021/12/14 05:37:06;;;;;;;41.10;24.13;;;;;;;10.83;82.97;101006.88;5073867;28;20094;-71
2021/12/14 05:45:29;;;;;;;46.15;31.92;;;;;;;10.79;82.77;100998.03;5090042;28;20036;-71
2021/12/14 05:48:00;;;;;;;35.58;28.08;;;;;;;10.82;82.99;100994.56;5070372;28;20047;-70
2021/12/14 05:50:33;;;;;;;56.92;45.40;;;;;;;10.84;83.01;100991.94;5103533;28;20442;-71
2021/12/14 05:53:02;;;;;;;34.35;26.13;;;;;;;10.86;82.99;100992.88;5089343;28;20092;-70
2021/12/14 05:55:34;;;;;;;41.50;29.33;;;;;;;10.92;83.21;100995.63;5089325;28;20048;-71
2021/12/14 05:58:11;;;;;;;47.03;30.55;;;;;;;11.00;83.32;100994.91;5073204;28;20039;-72
2021/12/14 06:00:44;;;;;;;30.88;17.90;;;;;;;11.07;83.47;100990.59;5089092;28;20060;-71
2021/12/14 06:03:20;;;;;;;34.93;21.80;;;;;;;11.15;83.64;100987.25;5089275;28;20036;-71
2021/12/14 06:05:48;;;;;;;61.45;46.70;;;;;;;11.22;83.81;100989.97;5089246;28;20492;-71
2021/12/14 06:08:22;;;;;;;110.63;96.88;;;;;;;11.28;83.93;100996.25;5072718;28;20484;-71
2021/12/14 06:10:54;;;;;;;90.88;77.35;;;;;;;11.34;84.20;100999.00;5073783;28;20132;-71
2021/12/14 06:13:36;;;;;;;85.63;71.80;;;;;;;11.42;84.46;100999.13;5090037;28;20048;-71
2021/12/14 06:16:04;;;;;;;88.90;73.80;;;;;;;11.46;84.62;100995.66;5088347;28;20040;-71
2021/12/14 06:18:32;;;;;;;67.38;54.80;;;;;;;11.62;85.38;100991.50;5089014;28;20036;-71
2021/12/14 06:21:33;;;;;;;37.80;31.52;;;;;;;11.76;86.15;101000.53;5089069;28;20036;-71
2021/12/14 06:24:04;;;;;;;44.40;38.13;;;;;;;11.73;86.38;100996.06;5088724;28;20052;-71
2021/12/14 06:26:42;;;;;;;47.15;38.72;;;;;;;11.76;86.61;101008.47;5088915;28;20123;-71
2021/12/14 06:29:14;;;;;;;54.03;45.80;;;;;;;11.79;86.52;101003.22;5089504;28;20125;-70
2021/12/14 06:31:43;;;;;;;68.68;56.38;;;;;;;11.86;86.51;101005.09;5090044;28;20488;-71
2021/12/14 06:34:20;;;;;;;59.42;49.33;;;;;;;12.15;86.86;101005.47;5083877;28;20051;-71
2021/12/14 06:37:28;;;;;;;51.75;43.75;;;;;;;12.40;87.49;100999.66;5088266;28;20376;-71
2021/12/14 06:40:01;;;;;;;42.28;31.42;;;;;;;12.56;87.71;100998.03;5087161;28;20051;-71
2021/12/14 06:42:30;;;;;;;21.20;16.17;;;;;;;12.69;87.94;100999.97;5080427;28;20036;-71
2021/12/14 06:45:09;;;;;;;26.00;18.50;;;;;;;12.80;87.87;100993.00;5087919;28;20040;-71
2021/12/14 06:47:38;;;;;;;24.20;17.17;;;;;;;13.09;88.38;100994.19;5088062;28;20072;-71
2021/12/14 06:50:10;;;;;;;40.65;29.27;;;;;;;13.46;88.96;100989.19;5087749;28;20044;-71
2021/12/14 06:52:38;;;;;;;46.83;33.80;;;;;;;13.74;89.28;100977.03;5087025;28;20460;-70
2021/12/14 06:55:30;;;;;;;38.95;22.80;;;;;;;14.00;89.34;100980.72;5091245;28;20089;-70
2021/12/14 06:58:27;;;;;;;41.42;28.60;;;;;;;14.33;89.50;100983.50;5059695;28;20670;-71
2021/12/14 07:01:02;;;;;;;62.47;43.15;;;;;;;14.67;89.31;100988.97;5105147;28;20042;-70
2021/12/14 07:03:39;;;;;;;34.85;21.23;;;;;;;14.91;88.99;100994.31;5088256;28;20036;-71
2021/12/14 07:06:14;;;;;;;27.48;17.80;;;;;;;15.04;88.91;100982.81;5087637;28;20047;-70
2021/12/14 07:08:45;;;;;;;30.95;17.60;;;;;;;15.11;88.53;100994.34;5070312;28;20451;-70
2021/12/14 07:11:20;;;;;;;25.10;18.98;;;;;;;15.23;88.56;100988.19;5089554;28;20043;-70
2021/12/14 07:13:49;;;;;;;18.08;14.25;;;;;;;15.28;88.10;100989.06;5085466;28;20115;-70
2021/12/14 07:16:23;;;;;;;12.43;7.90;;;;;;;15.27;87.43;100987.28;5083570;28;20052;-70
2021/12/14 07:18:54;;;;;;;10.40;5.30;;;;;;;15.37;86.39;100986.38;5087284;28;20044;-70
2021/12/14 07:21:41;;;;;;;7.68;4.15;;;;;;;15.49;85.33;100987.25;5086935;28;20040;-70
2021/12/14 07:24:32;;;;;;;6.78;3.00;;;;;;;15.84;84.36;100989.91;5087028;28;20059;-70
2021/12/14 07:27:22;;;;;;;7.85;3.28;;;;;;;16.04;83.54;100986.28;5088369;28;20080;-71
2021/12/14 07:29:51;;;;;;;11.95;6.90;;;;;;;16.17;83.20;100980.91;5089623;28;20627;-70
2021/12/14 07:32:43;;;;;;;15.95;10.68;;;;;;;16.10;82.72;100988.94;5089021;28;20051;-70
2021/12/14 07:35:21;;;;;;;16.35;12.07;;;;;;;15.90;82.26;100989.88;5087624;28;20052;-70
2021/12/14 07:37:49;;;;;;;17.10;11.52;;;;;;;15.79;82.28;100985.47;5087752;28;20040;-70
2021/12/14 07:40:17;;;;;;;17.42;12.13;;;;;;;15.66;82.21;100983.72;5089506;28;20046;-70
2021/12/14 07:42:46;;;;;;;16.30;11.07;;;;;;;15.53;81.84;100991.75;5089268;28;20075;-71
2021/12/14 07:45:25;;;;;;;13.90;9.25;;;;;;;15.38;81.08;100991.69;5088358;28;20040;-71
2021/12/14 07:47:55;;;;;;;13.82;7.40;;;;;;;15.27;79.85;100995.25;5088075;28;20434;-71
2021/12/14 07:50:39;;;;;;;14.35;8.35;;;;;;;15.19;79.42;100995.25;5089690;28;20044;-71
2021/12/14 07:53:07;;;;;;;13.57;7.47;;;;;;;15.19;79.04;101005.00;5087492;28;20481;-71
2021/12/14 07:55:39;;;;;;;11.60;7.70;;;;;;;15.22;78.79;101007.69;5087578;28;20460;-71
2021/12/14 07:58:07;;;;;;;21.67;13.25;;;;;;;15.18;78.82;101005.88;5089658;28;20036;-71
2021/12/14 08:00:40;;;;;;;28.67;20.45;;;;;;;15.17;78.91;100999.66;5087737;28;20047;-71
2021/12/14 08:03:11;;;;;;;19.88;13.43;;;;;;;15.19;78.99;101003.22;5087170;28;20056;-71
2021/12/14 08:05:42;;;;;;;13.40;7.57;;;;;;;15.18;79.01;101000.56;5089323;28;20451;-71
2021/12/14 08:08:18;;;;;;;15.15;7.32;;;;;;;15.19;78.90;101003.22;5089614;28;20446;-71
2021/12/14 08:10:56;;;;;;;11.80;6.40;;;;;;;15.18;78.73;101004.09;5087743;28;20047;-71
2021/12/14 08:13:26;;;;;;;12.45;5.63;;;;;;;15.20;78.60;100999.69;5088073;28;20039;-71
2021/12/14 08:15:56;;;;;;;12.95;7.03;;;;;;;15.23;78.49;100994.34;5088793;28;21677;-71
2021/12/14 08:18:28;;;;;;;10.63;5.22;;;;;;;15.34;78.33;100991.72;5089222;28;20089;-71
2021/12/14 08:21:00;;;;;;;9.60;5.25;;;;;;;15.46;78.27;100992.59;5087426;28;20043;-72
2021/12/14 08:23:31;;;;;;;8.68;5.07;;;;;;;15.52;77.80;100986.38;5087307;28;20496;-71
2021/12/14 08:26:04;;;;;;;10.43;4.63;;;;;;;15.54;77.50;100976.66;5087454;28;20678;-71
2021/12/14 08:28:32;;;;;;;10.55;4.50;;;;;;;15.56;76.43;100979.31;5087041;28;20036;-71
2021/12/14 08:31:04;;;;;;;12.25;5.10;;;;;;;15.64;76.05;100981.06;5087137;28;20078;-71
2021/12/14 08:33:34;;;;;;;9.60;5.30;;;;;;;15.72;76.06;100971.31;5087356;28;20083;-72
2021/12/14 08:36:04;;;;;;;7.80;3.83;;;;;;;15.77;76.12;100963.28;5069354;28;20076;-71
2021/12/14 08:38:34;;;;;;;6.20;2.60;;;;;;;15.76;76.06;100961.50;5103721;28;20044;-71
2021/12/14 08:41:12;;;;;;;7.38;2.90;;;;;;;15.91;76.49;100964.16;5090844;28;20032;-71
2021/12/14 08:43:47;;;;;;;15.27;6.75;;;;;;;16.24;77.43;100955.16;5091483;28;20042;-71
2021/12/14 08:46:19;;;;;;;14.02;5.55;;;;;;;16.22;77.64;100951.59;5083028;28;20529;-71
2021/12/14 08:48:52;;;;;;;16.67;6.13;;;;;;;16.20;78.13;100956.06;5084640;28;20048;-71
2021/12/14 08:51:25;;;;;;;5.95;2.53;;;;;;;16.17;78.14;100950.72;5089889;28;20510;-71
2021/12/14 08:53:57;;;;;;;15.98;6.03;;;;;;;16.24;76.98;100948.03;5090183;28;20044;-70
2021/12/14 08:56:26;;;;;;;2.88;1.30;;;;;;;16.52;76.94;100945.25;5089894;28;20079;-71
2021/12/14 08:58:54;;;;;;;4.93;2.00;;;;;;;16.81;77.37;100943.28;5087245;28;20039;-72
2021/12/14 09:01:27;;;;;;;8.18;2.80;;;;;;;17.16;77.49;100936.81;5088656;28;20040;-72
2021/12/14 09:03:59;;;;;;;3.05;1.20;;;;;;;17.40;75.48;100928.56;5090062;28;20514;-72
2021/12/14 09:06:32;;;;;;;5.85;2.15;;;;;;;17.75;73.73;100926.47;5089032;28;20038;-73
2021/12/14 09:09:02;;;;;;;10.55;3.90;;;;;;;18.05;72.03;100911.84;5089223;28;20127;-73
2021/12/14 09:11:35;;;;;;;7.10;2.95;;;;;;;18.24;70.61;100923.22;5089703;28;20496;-72
2021/12/14 09:14:04;;;;;;;4.50;2.08;;;;;;;18.21;70.04;100923.22;5089631;28;20483;-72
2021/12/14 09:16:35;;;;;;;5.45;3.15;;;;;;;18.05;68.30;100917.19;5088768;28;20466;-73
2021/12/14 09:19:10;;;;;;;7.57;3.33;;;;;;;17.71;67.27;100908.72;5090998;28;20032;-74
2021/12/14 09:21:40;;;;;;;6.35;2.45;;;;;;;17.50;67.79;100903.56;5073178;28;20047;-73
2021/12/14 09:24:10;;;;;;;10.18;3.70;;;;;;;17.29;66.74;100896.66;5098706;28;20124;-72
2021/12/14 09:26:43;;;;;;;6.40;2.65;;;;;;;17.05;66.39;100894.22;5071933;28;20548;-73
2021/12/14 09:29:14;;;;;;;9.33;2.83;;;;;;;16.80;66.94;100885.56;5091053;28;20036;-72
2021/12/14 09:31:44;;;;;;;5.57;2.33;;;;;;;16.66;67.31;100882.09;5090993;28;20079;-72
2021/12/14 09:34:14;;;;;;;7.43;3.00;;;;;;;16.58;66.97;100881.22;5090450;28;20458;-72
2021/12/14 09:36:42;;;;;;;8.13;2.47;;;;;;;16.52;67.18;100878.63;5091431;28;20119;-73
2021/12/14 09:39:14;;;;;;;8.35;2.20;;;;;;;16.46;67.17;100876.88;5088959;28;20047;-72
2021/12/14 09:41:44;;;;;;;6.05;2.60;;;;;;;16.41;67.21;100873.34;5087934;28;20048;-72
2021/12/14 09:44:14;;;;;;;7.63;2.97;;;;;;;16.38;67.72;100860.03;5089692;28;20070;-71
2021/12/14 09:46:42;;;;;;;6.40;2.53;;;;;;;16.38;67.64;100865.38;5089709;28;20036;-71
2021/12/14 09:49:14;;;;;;;6.55;2.30;;;;;;;16.42;67.66;100855.56;5089921;28;20044;-72
2021/12/14 09:51:47;;;;;;;8.10;4.53;;;;;;;16.39;67.97;100858.28;5104525;28;20545;-71
2021/12/14 09:54:20;;;;;;;7.40;3.10;;;;;;;16.39;68.30;100850.28;5090278;28;20123;-72
2021/12/14 09:56:50;;;;;;;7.13;2.97;;;;;;;16.37;68.36;100846.72;5087385;28;20119;-71
2021/12/14 09:59:19;;;;;;;8.63;4.32;;;;;;;16.32;68.31;100845.00;5090459;28;20127;-71
2021/12/14 10:01:52;;;;;;;13.48;6.25;;;;;;;16.26;67.90;100846.81;5089797;28;20056;-71
2021/12/14 10:04:25;;;;;;;15.05;6.50;;;;;;;16.18;68.08;100838.88;5089355;28;20461;-71
2021/12/14 10:06:54;;;;;;;10.87;5.10;;;;;;;16.15;68.19;100843.31;5096973;28;20454;-71
2021/12/14 10:09:25;;;;;;;13.75;5.05;;;;;;;16.10;68.34;100840.69;5087164;28;20322;-71
2021/12/14 10:12:17;;;;;;;20.25;9.98;;;;;;;15.99;68.78;100846.97;5090109;28;20048;-72
2021/12/14 10:14:48;;;;;;;13.50;5.65;;;;;;;15.68;70.15;100841.78;5095170;28;20139;-72
2021/12/14 10:17:19;;;;;;;19.35;8.52;;;;;;;15.48;71.01;100836.50;5086596;28;20060;-72
2021/12/14 10:19:50;;;;;;;13.52;6.78;;;;;;;15.30;71.86;100839.19;5078960;28;20040;-71
2021/12/14 10:22:23;;;;;;;10.65;5.13;;;;;;;15.15;72.35;100836.59;5070672;28;20044;-71
2021/12/14 10:24:51;;;;;;;11.18;4.43;;;;;;;15.21;73.30;100838.34;5088097;28;20649;-72
2021/12/14 10:27:22;;;;;;;12.02;5.07;;;;;;;15.22;73.81;100841.00;5083354;28;20040;-71
2021/12/14 10:29:50;;;;;;;13.07;5.75;;;;;;;15.07;74.62;100836.59;5086328;28;20124;-72
2021/12/14 10:32:29;;;;;;;13.48;7.60;;;;;;;14.90;75.46;100835.72;5086355;28;20040;-72
2021/12/14 10:35:03;;;;;;;8.35;3.45;;;;;;;14.80;76.07;100833.97;5087093;28;20055;-72
2021/12/14 10:37:50;;;;;;;7.20;3.70;;;;;;;14.73;76.84;100834.84;5080536;28;20043;-71
2021/12/14 10:45:53;;;;;;;8.95;5.10;;;;;;;14.53;77.41;100826.00;5088890;28;20040;-71
2021/12/14 10:48:23;;;;;;;9.30;3.88;;;;;;;14.45;77.95;100818.00;5088101;28;20402;-71
2021/12/14 10:50:54;;;;;;;10.68;5.82;;;;;;;14.47;78.27;100818.03;5088248;28;20062;-70
2021/12/14 10:53:24;;;;;;;8.48;4.18;;;;;;;14.50;78.58;100818.94;5088164;28;20088;-71
2021/12/14 10:55:55;;;;;;;8.68;2.95;;;;;;;14.51;78.91;100822.44;5087574;28;20442;-70
2021/12/14 10:58:25;;;;;;;7.07;3.25;;;;;;;14.44;78.69;100818.88;5088650;28;20054;-70
2021/12/14 11:00:57;;;;;;;7.80;4.53;;;;;;;14.54;78.79;100818.03;5086630;28;20040;-70
2021/12/14 11:03:28;;;;;;;6.78;3.30;;;;;;;14.59;79.09;100807.41;5085759;28;20463;-71
2021/12/14 11:06:02;;;;;;;10.75;3.67;;;;;;;14.51;79.77;100806.50;5093095;28;20040;-70
2021/12/14 11:11:36;;;;;;;12.25;2.70;;;;;;;14.57;80.34;100801.22;5046792;28;20414;-69
2021/12/14 11:14:08;;;;;;;5.50;2.45;;;;;;;14.63;80.35;100798.56;5037426;28;20049;-69
2021/12/14 11:19:35;;;;;;;8.43;2.70;;;;;;;14.70;80.07;100790.56;5073840;28;20037;-69
2021/12/14 11:22:11;;;;;;;5.38;2.28;;;;;;;14.77;80.25;100787.00;5044603;28;20052;-69
2021/12/14 11:24:41;;;;;;;6.22;2.70;;;;;;;14.76;80.35;100779.06;5043763;28;20052;-68
2021/12/14 11:27:20;;;;;;;4.85;2.70;;;;;;;14.74;80.39;100787.03;5040488;28;20549;-69
2021/12/14 11:29:52;;;;;;;7.80;3.28;;;;;;;14.68;80.40;100787.03;5041434;28;20508;-69
2021/12/14 11:32:22;;;;;;;11.73;6.70;;;;;;;14.68;80.50;100784.38;5068421;28;20124;-68
2021/12/14 11:34:50;;;;;;;7.78;5.03;;;;;;;14.70;80.61;100776.41;5023121;28;20067;-69
2021/12/14 11:37:33;;;;;;;8.35;4.70;;;;;;;14.69;80.51;100786.16;5043176;28;20501;-68
2021/12/14 11:40:03;;;;;;;10.90;4.38;;;;;;;14.65;79.65;100780.81;5039171;28;20056;-68
2021/12/14 11:42:32;;;;;;;8.52;4.50;;;;;;;14.54;78.89;100778.19;5043519;28;20128;-68
2021/12/14 11:45:02;;;;;;;9.05;4.07;;;;;;;14.48;78.63;100785.25;5044687;28;20151;-68
2021/12/14 11:47:46;;;;;;;8.48;3.00;;;;;;;14.50;78.51;100780.84;5043186;28;20033;-69
2021/12/14 11:50:23;;;;;;;3.75;2.08;;;;;;;14.60;77.84;100771.97;5043302;28;20056;-69
2021/12/14 11:52:56;;;;;;;8.15;1.88;;;;;;;14.52;77.00;100773.75;5043579;28;20065;-72
2021/12/14 11:55:35;;;;;;;15.15;5.07;;;;;;;14.53;77.35;100773.75;5043381;28;20069;-71
2021/12/14 11:58:17;;;;;;;11.30;3.92;;;;;;;14.58;77.19;100774.63;5044382;28;20443;-72
2021/12/14 12:00:49;;;;;;;11.82;5.07;;;;;;;14.63;76.84;100785.28;5043634;28;20065;-71
2021/12/14 12:03:23;;;;;;;12.57;5.32;;;;;;;14.63;76.10;100772.00;5044505;28;20053;-71
2021/12/14 12:06:02;;;;;;;9.95;4.45;;;;;;;14.64;75.40;100781.69;5044318;28;20555;-71
2021/12/14 12:11:17;;;;;;;8.02;3.13;;;;;;;14.60;75.05;100772.84;5042732;28;20049;-72
2021/12/14 12:13:47;;;;;;;12.93;4.03;;;;;;;14.58;74.89;100768.41;5044781;28;20037;-71
2021/12/14 12:16:19;;;;;;;17.85;7.68;;;;;;;14.55;73.88;100773.75;5044286;28;20449;-70
2021/12/14 12:19:13;;;;;;;10.00;5.13;;;;;;;14.60;74.55;100764.00;5044535;28;20129;-71
2021/12/14 12:21:43;;;;;;;10.43;5.50;;;;;;;14.60;74.60;100761.34;5068262;28;20476;-72
2021/12/14 12:24:32;;;;;;;8.93;5.50;;;;;;;14.65;74.35;100767.53;5030378;28;20377;-71